sensor_id;sensor_type;location;lat;lon;timestamp;temperature;humidity
46492;DHT22;32206;51.446;6.792;2023-09-08T00:01:18;21.80;1.00
46492;DHT22;32206;51.446;6.792;2023-09-08T00:03:45;21.70;1.00
46492;DHT22;32206;51.446;6.792;2023-09-08T00:06:10;21.70;1.00
46492;DHT22;32206;51.446;6.792;2023-09-08T00:08:36;21.70;1.00
46492;DHT22;32206;51.446;6.792;2023-09-08T00:11:02;21.60;99.90
46492;DHT22;32206;51.446;6.792;2023-09-08T00:13:27;21.60;99.90
46492;DHT22;32206;51.446;6.792;2023-09-08T00:15:53;21.60;1.00
46492;DHT22;32206;51.446;6.792;2023-09-08T00:18:19;21.60;99.90
46492;DHT22;32206;51.446;6.792;2023-09-08T00:20:44;21.60;1.00
46492;DHT22;32206;51.446;6.792;2023-09-08T00:23:10;21.50;1.00
46492;DHT22;32206;51.446;6.792;2023-09-08T00:25:35;21.50;64.90
46492;DHT22;32206;51.446;6.792;2023-09-08T00:28:01;21.50;99.90
46492;DHT22;32206;51.446;6.792;2023-09-08T00:30:28;21.50;99.90
46492;DHT22;32206;51.446;6.792;2023-09-08T00:32:54;21.40;99.90
46492;DHT22;32206;51.446;6.792;2023-09-08T00:35:19;21.40;99.90
46492;DHT22;32206;51.446;6.792;2023-09-08T00:37:45;21.40;99.90
46492;DHT22;32206;51.446;6.792;2023-09-08T00:40:11;21.30;1.00
46492;DHT22;32206;51.446;6.792;2023-09-08T00:42:36;21.30;1.00
46492;DHT22;32206;51.446;6.792;2023-09-08T00:45:02;21.20;73.00
46492;DHT22;32206;51.446;6.792;2023-09-08T00:47:29;21.10;99.90
46492;DHT22;32206;51.446;6.792;2023-09-08T00:53:30;21.10;99.90
46492;DHT22;32206;51.446;6.792;2023-09-08T00:55:56;21.00;1.00
46492;DHT22;32206;51.446;6.792;2023-09-08T00:58:23;21.00;99.90
46492;DHT22;32206;51.446;6.792;2023-09-08T01:00:48;20.90;99.90
46492;DHT22;32206;51.446;6.792;2023-09-08T01:03:14;20.90;99.90
46492;DHT22;32206;51.446;6.792;2023-09-08T01:05:40;20.80;1.00
46492;DHT22;32206;51.446;6.792;2023-09-08T01:08:06;20.90;99.90
46492;DHT22;32206;51.446;6.792;2023-09-08T01:10:32;20.80;1.00
46492;DHT22;32206;51.446;6.792;2023-09-08T01:13:00;20.80;9.10
46492;DHT22;32206;51.446;6.792;2023-09-08T01:15:26;20.80;1.00
46492;DHT22;32206;51.446;6.792;2023-09-08T01:17:52;20.70;79.70
46492;DHT22;32206;51.446;6.792;2023-09-08T01:20:20;20.70;1.00
46492;DHT22;32206;51.446;6.792;2023-09-08T01:25:55;20.80;99.90
46492;DHT22;32206;51.446;6.792;2023-09-08T01:28:22;20.70;99.90
46492;DHT22;32206;51.446;6.792;2023-09-08T01:30:49;20.70;99.90
46492;DHT22;32206;51.446;6.792;2023-09-08T01:33:16;20.60;1.00
46492;DHT22;32206;51.446;6.792;2023-09-08T01:35:42;20.60;1.00
46492;DHT22;32206;51.446;6.792;2023-09-08T01:38:08;20.50;99.90
46492;DHT22;32206;51.446;6.792;2023-09-08T01:40:33;20.50;1.00
46492;DHT22;32206;51.446;6.792;2023-09-08T01:43:00;20.40;1.00
46492;DHT22;32206;51.446;6.792;2023-09-08T01:45:26;20.40;1.00
46492;DHT22;32206;51.446;6.792;2023-09-08T01:47:51;20.30;99.90
46492;DHT22;32206;51.446;6.792;2023-09-08T01:50:17;20.30;99.90
46492;DHT22;32206;51.446;6.792;2023-09-08T01:52:47;20.30;99.90
46492;DHT22;32206;51.446;6.792;2023-09-08T01:55:12;20.20;99.90
46492;DHT22;32206;51.446;6.792;2023-09-08T01:57:38;20.20;99.90
46492;DHT22;32206;51.446;6.792;2023-09-08T02:00:19;20.20;99.90
46492;DHT22;32206;51.446;6.792;2023-09-08T02:02:45;20.20;99.90
46492;DHT22;32206;51.446;6.792;2023-09-08T02:05:10;20.10;99.90
46492;DHT22;32206;51.446;6.792;2023-09-08T02:07:36;20.10;99.90
46492;DHT22;32206;51.446;6.792;2023-09-08T02:10:02;20.00;99.90
46492;DHT22;32206;51.446;6.792;2023-09-08T02:12:27;20.00;99.90
46492;DHT22;32206;51.446;6.792;2023-09-08T02:14:53;20.00;1.00
46492;DHT22;32206;51.446;6.792;2023-09-08T02:17:18;20.00;1.00
46492;DHT22;32206;51.446;6.792;2023-09-08T02:23:43;20.00;99.90
46492;DHT22;32206;51.446;6.792;2023-09-08T02:26:09;20.00;99.90
46492;DHT22;32206;51.446;6.792;2023-09-08T02:28:36;19.90;99.90
46492;DHT22;32206;51.446;6.792;2023-09-08T02:31:01;19.90;99.90
46492;DHT22;32206;51.446;6.792;2023-09-08T02:33:27;19.90;99.90
46492;DHT22;32206;51.446;6.792;2023-09-08T02:35:54;19.80;99.90
46492;DHT22;32206;51.446;6.792;2023-09-08T02:38:19;19.80;99.90
46492;DHT22;32206;51.446;6.792;2023-09-08T02:40:45;19.80;1.00
46492;DHT22;32206;51.446;6.792;2023-09-08T02:43:10;19.80;1.00
46492;DHT22;32206;51.446;6.792;2023-09-08T02:45:36;19.70;1.00
46492;DHT22;32206;51.446;6.792;2023-09-08T02:48:02;19.70;1.00
46492;DHT22;32206;51.446;6.792;2023-09-08T02:50:27;19.70;1.00
46492;DHT22;32206;51.446;6.792;2023-09-08T02:52:53;19.60;1.00
46492;DHT22;32206;51.446;6.792;2023-09-08T02:55:18;19.60;1.00
46492;DHT22;32206;51.446;6.792;2023-09-08T02:57:44;19.50;1.00
46492;DHT22;32206;51.446;6.792;2023-09-08T03:00:10;19.50;1.00
46492;DHT22;32206;51.446;6.792;2023-09-08T03:02:36;19.50;1.00
46492;DHT22;32206;51.446;6.792;2023-09-08T03:05:01;19.40;1.00
46492;DHT22;32206;51.446;6.792;2023-09-08T03:07:27;19.50;1.00
46492;DHT22;32206;51.446;6.792;2023-09-08T03:09:53;19.50;1.00
46492;DHT22;32206;51.446;6.792;2023-09-08T03:15:34;19.50;1.00
46492;DHT22;32206;51.446;6.792;2023-09-08T03:18:00;19.40;1.00
46492;DHT22;32206;51.446;6.792;2023-09-08T03:20:25;19.40;1.00
46492;DHT22;32206;51.446;6.792;2023-09-08T03:22:52;19.40;1.00
46492;DHT22;32206;51.446;6.792;2023-09-08T03:25:18;19.30;1.00
46492;DHT22;32206;51.446;6.792;2023-09-08T03:27:43;19.30;1.00
46492;DHT22;32206;51.446;6.792;2023-09-08T03:30:09;19.30;1.00
46492;DHT22;32206;51.446;6.792;2023-09-08T03:32:55;19.30;1.00
46492;DHT22;32206;51.446;6.792;2023-09-08T03:35:21;19.30;1.00
46492;DHT22;32206;51.446;6.792;2023-09-08T03:37:46;19.40;1.00
46492;DHT22;32206;51.446;6.792;2023-09-08T03:40:12;19.30;1.00
46492;DHT22;32206;51.446;6.792;2023-09-08T03:42:37;19.30;1.00
46492;DHT22;32206;51.446;6.792;2023-09-08T03:45:04;19.30;1.00
46492;DHT22;32206;51.446;6.792;2023-09-08T03:47:29;19.30;1.00
46492;DHT22;32206;51.446;6.792;2023-09-08T03:49:55;19.30;1.00
46492;DHT22;32206;51.446;6.792;2023-09-08T03:52:21;19.20;1.00
46492;DHT22;32206;51.446;6.792;2023-09-08T03:54:46;19.20;1.00
46492;DHT22;32206;51.446;6.792;2023-09-08T03:57:12;19.10;1.00
46492;DHT22;32206;51.446;6.792;2023-09-08T03:59:37;19.00;1.00
46492;DHT22;32206;51.446;6.792;2023-09-08T04:02:03;19.00;3.80
46492;DHT22;32206;51.446;6.792;2023-09-08T04:04:29;18.90;16.70
46492;DHT22;32206;51.446;6.792;2023-09-08T04:06:54;19.00;22.10
46492;DHT22;32206;51.446;6.792;2023-09-08T04:09:20;19.00;18.40
46492;DHT22;32206;51.446;6.792;2023-09-08T04:11:46;19.00;11.70
46492;DHT22;32206;51.446;6.792;2023-09-08T04:14:11;19.00;4.50
46492;DHT22;32206;51.446;6.792;2023-09-08T04:16:37;19.00;1.20
46492;DHT22;32206;51.446;6.792;2023-09-08T04:19:02;19.00;1.10
46492;DHT22;32206;51.446;6.792;2023-09-08T04:21:28;18.90;7.80
46492;DHT22;32206;51.446;6.792;2023-09-08T04:27:41;18.90;13.50
46492;DHT22;32206;51.446;6.792;2023-09-08T04:30:07;18.90;6.10
46492;DHT22;32206;51.446;6.792;2023-09-08T04:35:46;19.00;1.00
46492;DHT22;32206;51.446;6.792;2023-09-08T04:38:11;18.90;2.50
46492;DHT22;32206;51.446;6.792;2023-09-08T04:40:40;18.90;5.60
46492;DHT22;32206;51.446;6.792;2023-09-08T04:43:07;18.90;8.70
46492;DHT22;32206;51.446;6.792;2023-09-08T04:45:32;18.90;4.40
46492;DHT22;32206;51.446;6.792;2023-09-08T04:47:58;18.80;8.10
46492;DHT22;32206;51.446;6.792;2023-09-08T04:50:24;18.80;11.30
46492;DHT22;32206;51.446;6.792;2023-09-08T04:52:49;18.80;13.30
46492;DHT22;32206;51.446;6.792;2023-09-08T04:55:16;18.80;8.90
46492;DHT22;32206;51.446;6.792;2023-09-08T04:57:42;18.80;15.10
46492;DHT22;32206;51.446;6.792;2023-09-08T05:00:08;18.80;14.50
46492;DHT22;32206;51.446;6.792;2023-09-08T05:02:33;18.70;15.40
46492;DHT22;32206;51.446;6.792;2023-09-08T05:04:59;18.70;19.70
46492;DHT22;32206;51.446;6.792;2023-09-08T05:07:25;18.80;12.80
46492;DHT22;32206;51.446;6.792;2023-09-08T05:09:51;18.80;4.70
46492;DHT22;32206;51.446;6.792;2023-09-08T05:12:16;18.80;1.50
46492;DHT22;32206;51.446;6.792;2023-09-08T05:14:42;18.70;2.00
46492;DHT22;32206;51.446;6.792;2023-09-08T05:17:08;18.70;7.70
46492;DHT22;32206;51.446;6.792;2023-09-08T05:19:33;18.80;4.90
46492;DHT22;32206;51.446;6.792;2023-09-08T05:21:59;18.80;7.00
46492;DHT22;32206;51.446;6.792;2023-09-08T05:27:47;18.80;6.10
46492;DHT22;32206;51.446;6.792;2023-09-08T05:30:14;18.80;1.00
46492;DHT22;32206;51.446;6.792;2023-09-08T05:32:39;18.80;7.90
46492;DHT22;32206;51.446;6.792;2023-09-08T05:35:05;18.80;7.70
46492;DHT22;32206;51.446;6.792;2023-09-08T05:37:31;18.80;3.40
46492;DHT22;32206;51.446;6.792;2023-09-08T05:39:57;18.80;4.60
46492;DHT22;32206;51.446;6.792;2023-09-08T05:42:22;18.80;4.20
46492;DHT22;32206;51.446;6.792;2023-09-08T05:44:48;18.80;1.00
46492;DHT22;32206;51.446;6.792;2023-09-08T05:47:14;18.90;1.00
46492;DHT22;32206;51.446;6.792;2023-09-08T05:49:39;18.90;1.20
46492;DHT22;32206;51.446;6.792;2023-09-08T05:52:05;18.90;3.10
46492;DHT22;32206;51.446;6.792;2023-09-08T05:54:31;19.00;1.00
46492;DHT22;32206;51.446;6.792;2023-09-08T05:56:57;19.00;1.00
46492;DHT22;32206;51.446;6.792;2023-09-08T05:59:22;19.10;1.00
46492;DHT22;32206;51.446;6.792;2023-09-08T06:01:48;19.10;1.00
46492;DHT22;32206;51.446;6.792;2023-09-08T06:07:39;19.10;1.00
46492;DHT22;32206;51.446;6.792;2023-09-08T06:10:05;19.10;1.00
46492;DHT22;32206;51.446;6.792;2023-09-08T06:12:30;19.10;1.00
46492;DHT22;32206;51.446;6.792;2023-09-08T06:14:56;19.20;1.00
46492;DHT22;32206;51.446;6.792;2023-09-08T06:17:22;19.20;1.00
46492;DHT22;32206;51.446;6.792;2023-09-08T06:19:47;19.20;1.00
46492;DHT22;32206;51.446;6.792;2023-09-08T06:22:13;19.20;1.00
46492;DHT22;32206;51.446;6.792;2023-09-08T06:28:01;19.40;1.00
46492;DHT22;32206;51.446;6.792;2023-09-08T06:30:26;19.40;1.00
46492;DHT22;32206;51.446;6.792;2023-09-08T06:32:52;19.50;1.00
46492;DHT22;32206;51.446;6.792;2023-09-08T06:35:17;19.50;1.00
46492;DHT22;32206;51.446;6.792;2023-09-08T06:37:43;19.50;1.00
46492;DHT22;32206;51.446;6.792;2023-09-08T06:40:09;19.60;1.00
46492;DHT22;32206;51.446;6.792;2023-09-08T06:42:34;19.70;1.00
46492;DHT22;32206;51.446;6.792;2023-09-08T06:52:09;19.90;1.00
46492;DHT22;32206;51.446;6.792;2023-09-08T06:54:35;20.00;1.00
46492;DHT22;32206;51.446;6.792;2023-09-08T06:57:01;20.10;1.00
46492;DHT22;32206;51.446;6.792;2023-09-08T06:59:26;20.10;1.00
46492;DHT22;32206;51.446;6.792;2023-09-08T07:01:52;20.20;1.00
46492;DHT22;32206;51.446;6.792;2023-09-08T07:11:02;20.50;99.90
46492;DHT22;32206;51.446;6.792;2023-09-08T07:13:27;20.60;1.00
46492;DHT22;32206;51.446;6.792;2023-09-08T07:15:53;20.70;99.90
46492;DHT22;32206;51.446;6.792;2023-09-08T07:18:19;20.80;99.90
46492;DHT22;32206;51.446;6.792;2023-09-08T07:20:48;20.80;99.90
46492;DHT22;32206;51.446;6.792;2023-09-08T07:23:14;20.90;99.90
46492;DHT22;32206;51.446;6.792;2023-09-08T07:32:08;21.20;99.90
46492;DHT22;32206;51.446;6.792;2023-09-08T07:34:34;21.30;99.90
46492;DHT22;32206;51.446;6.792;2023-09-08T07:37:00;21.30;99.90
46492;DHT22;32206;51.446;6.792;2023-09-08T07:39:26;21.40;3.00
46492;DHT22;32206;51.446;6.792;2023-09-08T07:41:52;21.50;99.90
46492;DHT22;32206;51.446;6.792;2023-09-08T07:44:18;21.60;96.10
46492;DHT22;32206;51.446;6.792;2023-09-08T07:46:44;21.70;99.90
46492;DHT22;32206;51.446;6.792;2023-09-08T07:49:11;21.80;38.90
46492;DHT22;32206;51.446;6.792;2023-09-08T07:51:37;22.00;99.90
46492;DHT22;32206;51.446;6.792;2023-09-08T07:54:02;22.10;81.30
46492;DHT22;32206;51.446;6.792;2023-09-08T07:56:29;22.30;1.00
46492;DHT22;32206;51.446;6.792;2023-09-08T08:06:14;22.70;99.90
46492;DHT22;32206;51.446;6.792;2023-09-08T08:08:40;22.80;99.90
46492;DHT22;32206;51.446;6.792;2023-09-08T08:14:27;23.10;99.90
46492;DHT22;32206;51.446;6.792;2023-09-08T08:16:53;23.20;99.90
46492;DHT22;32206;51.446;6.792;2023-09-08T08:19:19;23.30;99.90
46492;DHT22;32206;51.446;6.792;2023-09-08T08:21:44;23.40;99.90
46492;DHT22;32206;51.446;6.792;2023-09-08T08:34:16;24.00;99.90
46492;DHT22;32206;51.446;6.792;2023-09-08T08:36:42;24.10;81.50
46492;DHT22;32206;51.446;6.792;2023-09-08T08:39:08;24.20;22.30
46492;DHT22;32206;51.446;6.792;2023-09-08T08:41:34;24.30;4.90
46492;DHT22;32206;51.446;6.792;2023-09-08T08:44:04;24.40;1.00
46492;DHT22;32206;51.446;6.792;2023-09-08T08:46:31;24.60;1.00
46492;DHT22;32206;51.446;6.792;2023-09-08T08:56:02;25.00;1.00
46492;DHT22;32206;51.446;6.792;2023-09-08T08:58:29;25.20;1.00
46492;DHT22;32206;51.446;6.792;2023-09-08T09:00:54;25.30;1.00
46492;DHT22;32206;51.446;6.792;2023-09-08T09:03:24;25.40;1.00
46492;DHT22;32206;51.446;6.792;2023-09-08T09:05:51;25.50;1.00
46492;DHT22;32206;51.446;6.792;2023-09-08T09:08:18;25.60;1.00
46492;DHT22;32206;51.446;6.792;2023-09-08T09:14:06;25.80;1.00
46492;DHT22;32206;51.446;6.792;2023-09-08T09:16:41;25.90;1.00
46492;DHT22;32206;51.446;6.792;2023-09-08T09:19:07;25.90;1.00
46492;DHT22;32206;51.446;6.792;2023-09-08T09:21:43;26.00;1.00
46492;DHT22;32206;51.446;6.792;2023-09-08T09:34:13;26.30;1.00
46492;DHT22;32206;51.446;6.792;2023-09-08T09:36:42;26.50;1.00
46492;DHT22;32206;51.446;6.792;2023-09-08T09:39:08;26.60;1.00
46492;DHT22;32206;51.446;6.792;2023-09-08T09:41:34;26.70;1.00
46492;DHT22;32206;51.446;6.792;2023-09-08T09:43:59;26.80;1.00
46492;DHT22;32206;51.446;6.792;2023-09-08T09:46:28;26.80;1.00
46492;DHT22;32206;51.446;6.792;2023-09-08T09:48:54;26.90;1.00
46492;DHT22;32206;51.446;6.792;2023-09-08T09:51:22;27.10;1.00
46492;DHT22;32206;51.446;6.792;2023-09-08T09:53:50;27.30;1.00
46492;DHT22;32206;51.446;6.792;2023-09-08T09:56:17;27.40;1.00
46492;DHT22;32206;51.446;6.792;2023-09-08T09:58:44;27.50;1.00
46492;DHT22;32206;51.446;6.792;2023-09-08T10:01:11;27.60;1.00
46492;DHT22;32206;51.446;6.792;2023-09-08T10:03:39;27.80;1.00
46492;DHT22;32206;51.446;6.792;2023-09-08T10:06:05;28.00;1.00
46492;DHT22;32206;51.446;6.792;2023-09-08T10:08:34;28.10;1.00
46492;DHT22;32206;51.446;6.792;2023-09-08T10:11:05;28.10;1.00
46492;DHT22;32206;51.446;6.792;2023-09-08T10:13:42;28.20;1.00
46492;DHT22;32206;51.446;6.792;2023-09-08T10:16:13;28.20;1.00
46492;DHT22;32206;51.446;6.792;2023-09-08T10:18:43;28.30;1.00
46492;DHT22;32206;51.446;6.792;2023-09-08T10:27:54;28.60;1.00
46492;DHT22;32206;51.446;6.792;2023-09-08T10:30:20;28.70;1.00
46492;DHT22;32206;51.446;6.792;2023-09-08T10:32:47;28.70;1.00
46492;DHT22;32206;51.446;6.792;2023-09-08T10:35:15;28.70;1.00
46492;DHT22;32206;51.446;6.792;2023-09-08T10:37:43;28.90;1.00
46492;DHT22;32206;51.446;6.792;2023-09-08T10:40:29;29.00;1.00
46492;DHT22;32206;51.446;6.792;2023-09-08T10:43:11;29.20;1.00
46492;DHT22;32206;51.446;6.792;2023-09-08T10:45:37;29.30;1.00
46492;DHT22;32206;51.446;6.792;2023-09-08T10:48:06;29.40;1.00
46492;DHT22;32206;51.446;6.792;2023-09-08T10:50:34;29.60;1.00
46492;DHT22;32206;51.446;6.792;2023-09-08T10:53:17;29.90;1.00
46492;DHT22;32206;51.446;6.792;2023-09-08T10:55:45;30.10;1.00
46492;DHT22;32206;51.446;6.792;2023-09-08T10:58:43;30.10;1.00
46492;DHT22;32206;51.446;6.792;2023-09-08T11:01:20;30.20;1.00
46492;DHT22;32206;51.446;6.792;2023-09-08T11:03:52;30.30;99.90
46492;DHT22;32206;51.446;6.792;2023-09-08T11:06:19;30.40;1.00
46492;DHT22;32206;51.446;6.792;2023-09-08T11:08:45;30.40;99.90
46492;DHT22;32206;51.446;6.792;2023-09-08T11:11:15;30.70;99.90
46492;DHT22;32206;51.446;6.792;2023-09-08T11:14:03;30.90;99.90
46492;DHT22;32206;51.446;6.792;2023-09-08T11:16:29;30.80;99.90
46492;DHT22;32206;51.446;6.792;2023-09-08T11:18:58;30.90;99.90
46492;DHT22;32206;51.446;6.792;2023-09-08T11:21:24;31.10;99.90
46492;DHT22;32206;51.446;6.792;2023-09-08T11:23:49;31.20;99.90
46492;DHT22;32206;51.446;6.792;2023-09-08T11:26:15;31.30;99.90
46492;DHT22;32206;51.446;6.792;2023-09-08T11:28:42;31.50;99.90
46492;DHT22;32206;51.446;6.792;2023-09-08T11:31:08;31.60;99.90
46492;DHT22;32206;51.446;6.792;2023-09-08T11:33:36;31.70;99.90
46492;DHT22;32206;51.446;6.792;2023-09-08T11:36:12;31.80;99.90
46492;DHT22;32206;51.446;6.792;2023-09-08T11:38:39;31.80;99.90
46492;DHT22;32206;51.446;6.792;2023-09-08T11:41:06;31.90;99.90
46492;DHT22;32206;51.446;6.792;2023-09-08T11:43:32;32.10;99.90
46492;DHT22;32206;51.446;6.792;2023-09-08T11:46:00;32.30;99.90
46492;DHT22;32206;51.446;6.792;2023-09-08T11:48:26;32.30;99.90
46492;DHT22;32206;51.446;6.792;2023-09-08T11:50:55;32.60;99.90
46492;DHT22;32206;51.446;6.792;2023-09-08T11:53:22;32.60;99.90
46492;DHT22;32206;51.446;6.792;2023-09-08T11:55:49;32.50;99.90
46492;DHT22;32206;51.446;6.792;2023-09-08T11:58:15;32.40;99.90
46492;DHT22;32206;51.446;6.792;2023-09-08T12:00:40;32.50;99.90
46492;DHT22;32206;51.446;6.792;2023-09-08T12:03:14;32.70;99.90
46492;DHT22;32206;51.446;6.792;2023-09-08T12:05:40;32.90;99.90
46492;DHT22;32206;51.446;6.792;2023-09-08T12:08:07;33.20;99.90
46492;DHT22;32206;51.446;6.792;2023-09-08T12:10:41;33.20;99.90
46492;DHT22;32206;51.446;6.792;2023-09-08T12:13:07;33.30;99.90
46492;DHT22;32206;51.446;6.792;2023-09-08T12:15:37;33.40;99.90
46492;DHT22;32206;51.446;6.792;2023-09-08T12:18:06;33.30;99.90
46492;DHT22;32206;51.446;6.792;2023-09-08T12:20:32;33.10;99.90
46492;DHT22;32206;51.446;6.792;2023-09-08T12:23:03;33.20;99.90
46492;DHT22;32206;51.446;6.792;2023-09-08T12:25:29;33.30;99.90
46492;DHT22;32206;51.446;6.792;2023-09-08T12:27:57;33.20;99.90
46492;DHT22;32206;51.446;6.792;2023-09-08T12:30:23;33.20;99.90
46492;DHT22;32206;51.446;6.792;2023-09-08T12:32:58;33.20;99.90
46492;DHT22;32206;51.446;6.792;2023-09-08T12:35:24;33.10;99.90
46492;DHT22;32206;51.446;6.792;2023-09-08T12:38:08;33.10;99.90
46492;DHT22;32206;51.446;6.792;2023-09-08T12:40:35;33.20;99.90
46492;DHT22;32206;51.446;6.792;2023-09-08T12:43:02;33.40;99.90
46492;DHT22;32206;51.446;6.792;2023-09-08T12:48:50;33.00;99.90
46492;DHT22;32206;51.446;6.792;2023-09-08T12:51:15;32.90;99.90
46492;DHT22;32206;51.446;6.792;2023-09-08T12:53:41;32.90;99.90
46492;DHT22;32206;51.446;6.792;2023-09-08T12:56:07;33.00;99.90
46492;DHT22;32206;51.446;6.792;2023-09-08T12:58:32;33.00;99.90
46492;DHT22;32206;51.446;6.792;2023-09-08T13:00:59;33.10;99.90
46492;DHT22;32206;51.446;6.792;2023-09-08T13:03:24;33.10;99.90
46492;DHT22;32206;51.446;6.792;2023-09-08T13:05:50;33.00;99.90
46492;DHT22;32206;51.446;6.792;2023-09-08T13:08:15;32.80;99.90
46492;DHT22;32206;51.446;6.792;2023-09-08T13:14:03;32.50;99.90
46492;DHT22;32206;51.446;6.792;2023-09-08T13:16:29;32.60;99.90
46492;DHT22;32206;51.446;6.792;2023-09-08T13:18:54;32.80;99.90
46492;DHT22;32206;51.446;6.792;2023-09-08T13:21:20;32.70;99.90
46492;DHT22;32206;51.446;6.792;2023-09-08T13:23:46;32.70;99.90
46492;DHT22;32206;51.446;6.792;2023-09-08T13:26:12;32.80;99.90
46492;DHT22;32206;51.446;6.792;2023-09-08T13:28:37;32.90;99.90
46492;DHT22;32206;51.446;6.792;2023-09-08T13:31:03;32.80;99.90
46492;DHT22;32206;51.446;6.792;2023-09-08T13:33:29;32.50;99.90
46492;DHT22;32206;51.446;6.792;2023-09-08T13:35:54;32.60;99.90
46492;DHT22;32206;51.446;6.792;2023-09-08T13:38:20;32.60;99.90
46492;DHT22;32206;51.446;6.792;2023-09-08T13:40:46;32.60;99.90
46492;DHT22;32206;51.446;6.792;2023-09-08T13:43:11;32.80;99.90
46492;DHT22;32206;51.446;6.792;2023-09-08T13:45:37;32.60;99.90
46492;DHT22;32206;51.446;6.792;2023-09-08T13:48:03;32.70;99.90
46492;DHT22;32206;51.446;6.792;2023-09-08T13:50:31;32.80;99.90
46492;DHT22;32206;51.446;6.792;2023-09-08T13:52:57;32.80;99.90
46492;DHT22;32206;51.446;6.792;2023-09-08T13:55:22;32.80;99.90
46492;DHT22;32206;51.446;6.792;2023-09-08T13:57:50;32.70;99.90
46492;DHT22;32206;51.446;6.792;2023-09-08T14:00:16;32.70;99.90
46492;DHT22;32206;51.446;6.792;2023-09-08T14:02:43;32.60;99.90
46492;DHT22;32206;51.446;6.792;2023-09-08T14:05:08;32.60;99.90
46492;DHT22;32206;51.446;6.792;2023-09-08T14:07:35;32.50;99.90
46492;DHT22;32206;51.446;6.792;2023-09-08T14:10:00;32.50;99.90
46492;DHT22;32206;51.446;6.792;2023-09-08T14:12:27;32.50;99.90
46492;DHT22;32206;51.446;6.792;2023-09-08T14:14:52;32.70;99.90
46492;DHT22;32206;51.446;6.792;2023-09-08T14:17:18;32.60;99.90
46492;DHT22;32206;51.446;6.792;2023-09-08T14:19:43;32.40;99.90
46492;DHT22;32206;51.446;6.792;2023-09-08T14:22:09;32.40;99.90
46492;DHT22;32206;51.446;6.792;2023-09-08T14:24:35;32.50;99.90
46492;DHT22;32206;51.446;6.792;2023-09-08T14:27:00;32.60;99.90
46492;DHT22;32206;51.446;6.792;2023-09-08T14:36:10;32.80;99.90
46492;DHT22;32206;51.446;6.792;2023-09-08T14:38:36;33.00;99.90
46492;DHT22;32206;51.446;6.792;2023-09-08T14:41:02;32.90;99.90
46492;DHT22;32206;51.446;6.792;2023-09-08T14:43:29;32.90;99.90
46492;DHT22;32206;51.446;6.792;2023-09-08T14:52:39;32.80;99.90
46492;DHT22;32206;51.446;6.792;2023-09-08T14:55:06;32.70;99.90
46492;DHT22;32206;51.446;6.792;2023-09-08T14:57:32;32.60;99.90
46492;DHT22;32206;51.446;6.792;2023-09-08T14:59:58;32.70;99.90
46492;DHT22;32206;51.446;6.792;2023-09-08T15:02:24;32.80;99.90
46492;DHT22;32206;51.446;6.792;2023-09-08T15:04:49;33.20;99.90
46492;DHT22;32206;51.446;6.792;2023-09-08T15:07:15;33.40;99.90
46492;DHT22;32206;51.446;6.792;2023-09-08T15:09:40;33.30;99.90
46492;DHT22;32206;51.446;6.792;2023-09-08T15:12:06;33.30;99.90
46492;DHT22;32206;51.446;6.792;2023-09-08T15:14:32;33.40;99.90
46492;DHT22;32206;51.446;6.792;2023-09-08T15:16:57;33.40;99.90
46492;DHT22;32206;51.446;6.792;2023-09-08T15:19:23;33.20;99.90
46492;DHT22;32206;51.446;6.792;2023-09-08T15:21:48;33.20;99.90
46492;DHT22;32206;51.446;6.792;2023-09-08T15:24:15;33.30;99.90
46492;DHT22;32206;51.446;6.792;2023-09-08T15:26:40;33.30;99.90
46492;DHT22;32206;51.446;6.792;2023-09-08T15:29:06;33.40;99.90
46492;DHT22;32206;51.446;6.792;2023-09-08T15:31:32;33.40;99.90
46492;DHT22;32206;51.446;6.792;2023-09-08T15:33:57;33.60;99.90
46492;DHT22;32206;51.446;6.792;2023-09-08T15:36:23;33.60;99.90
46492;DHT22;32206;51.446;6.792;2023-09-08T15:38:49;33.70;99.90
46492;DHT22;32206;51.446;6.792;2023-09-08T15:41:16;33.90;99.90
46492;DHT22;32206;51.446;6.792;2023-09-08T15:43:46;33.90;99.90
46492;DHT22;32206;51.446;6.792;2023-09-08T15:46:12;34.10;99.90
46492;DHT22;32206;51.446;6.792;2023-09-08T15:48:38;34.20;99.90
46492;DHT22;32206;51.446;6.792;2023-09-08T15:51:04;34.20;99.90
46492;DHT22;32206;51.446;6.792;2023-09-08T15:53:30;34.30;99.90
46492;DHT22;32206;51.446;6.792;2023-09-08T15:55:57;34.40;99.90
46492;DHT22;32206;51.446;6.792;2023-09-08T15:58:23;34.40;99.90
46492;DHT22;32206;51.446;6.792;2023-09-08T16:00:48;34.10;99.90
46492;DHT22;32206;51.446;6.792;2023-09-08T16:03:14;33.90;99.90
46492;DHT22;32206;51.446;6.792;2023-09-08T16:09:02;33.60;99.90
46492;DHT22;32206;51.446;6.792;2023-09-08T16:11:29;33.40;99.90
46492;DHT22;32206;51.446;6.792;2023-09-08T16:13:54;33.40;99.90
46492;DHT22;32206;51.446;6.792;2023-09-08T16:16:20;33.30;99.90
46492;DHT22;32206;51.446;6.792;2023-09-08T16:18:46;33.10;99.90
46492;DHT22;32206;51.446;6.792;2023-09-08T16:21:11;33.00;99.90
46492;DHT22;32206;51.446;6.792;2023-09-08T16:23:37;32.90;99.90
46492;DHT22;32206;51.446;6.792;2023-09-08T16:26:02;32.90;99.90
46492;DHT22;32206;51.446;6.792;2023-09-08T16:28:28;32.80;99.90
46492;DHT22;32206;51.446;6.792;2023-09-08T16:30:54;32.70;99.90
46492;DHT22;32206;51.446;6.792;2023-09-08T16:33:19;32.70;99.90
46492;DHT22;32206;51.446;6.792;2023-09-08T16:35:45;32.60;99.90
46492;DHT22;32206;51.446;6.792;2023-09-08T16:38:10;32.70;99.90
46492;DHT22;32206;51.446;6.792;2023-09-08T16:40:38;32.70;99.90
46492;DHT22;32206;51.446;6.792;2023-09-08T16:43:04;32.90;99.90
46492;DHT22;32206;51.446;6.792;2023-09-08T16:45:31;33.20;99.90
46492;DHT22;32206;51.446;6.792;2023-09-08T16:47:57;33.60;99.90
46492;DHT22;32206;51.446;6.792;2023-09-08T16:50:22;33.50;99.90
46492;DHT22;32206;51.446;6.792;2023-09-08T16:52:48;33.40;99.90
46492;DHT22;32206;51.446;6.792;2023-09-08T16:55:14;33.00;99.90
46492;DHT22;32206;51.446;6.792;2023-09-08T16:57:40;32.70;99.90
46492;DHT22;32206;51.446;6.792;2023-09-08T17:00:07;32.80;99.90
46492;DHT22;32206;51.446;6.792;2023-09-08T17:02:36;32.80;99.90
46492;DHT22;32206;51.446;6.792;2023-09-08T17:05:02;32.90;99.90
46492;DHT22;32206;51.446;6.792;2023-09-08T17:07:28;32.90;99.90
46492;DHT22;32206;51.446;6.792;2023-09-08T17:09:54;32.60;99.90
46492;DHT22;32206;51.446;6.792;2023-09-08T17:12:19;32.30;99.90
46492;DHT22;32206;51.446;6.792;2023-09-08T17:14:45;32.00;99.90
46492;DHT22;32206;51.446;6.792;2023-09-08T17:17:10;31.70;99.90
46492;DHT22;32206;51.446;6.792;2023-09-08T17:19:36;31.40;99.90
46492;DHT22;32206;51.446;6.792;2023-09-08T17:22:02;31.20;99.90
46492;DHT22;32206;51.446;6.792;2023-09-08T17:24:28;31.10;99.90
46492;DHT22;32206;51.446;6.792;2023-09-08T17:26:57;30.90;99.90
46492;DHT22;32206;51.446;6.792;2023-09-08T17:29:22;30.70;99.90
46492;DHT22;32206;51.446;6.792;2023-09-08T17:31:48;30.60;99.90
46492;DHT22;32206;51.446;6.792;2023-09-08T17:34:18;30.40;99.90
46492;DHT22;32206;51.446;6.792;2023-09-08T17:36:51;30.30;99.90